createdAt,value
2022-07-26T00:00:05.756Z,25.38
2022-07-26T00:00:20.047Z,25.26
2022-07-26T00:00:32.001Z,25.17
2022-07-26T00:00:44.632Z,25.19
2022-07-26T00:00:56.699Z,25.25
2022-07-26T00:01:08.740Z,25.33
2022-07-26T00:01:22.067Z,25.36
2022-07-26T00:01:34.414Z,25.37
2022-07-26T00:01:46.668Z,25.38
2022-07-26T00:01:58.893Z,25.38
2022-07-26T00:02:14.180Z,25.42
2022-07-26T00:02:30.114Z,25.41
2022-07-26T00:02:47.201Z,25.42
2022-07-26T00:03:00.006Z,25.48
2022-07-26T00:03:12.020Z,25.49
2022-07-26T00:03:23.953Z,25.52
2022-07-26T00:03:35.895Z,25.51
2022-07-26T00:03:49.772Z,25.51
2022-07-26T00:04:02.023Z,25.51
2022-07-26T00:04:13.966Z,25.44
2022-07-26T00:04:26.080Z,25.44
2022-07-26T00:04:38.155Z,25.43
2022-07-26T00:04:50.167Z,25.44
2022-07-26T00:05:02.094Z,25.44
2022-07-26T00:05:14.759Z,25.38
2022-07-26T00:05:26.686Z,25.37
2022-07-26T00:05:38.917Z,25.34
2022-07-26T00:05:50.843Z,25.31
2022-07-26T00:06:02.814Z,25.27
2022-07-26T00:06:15.277Z,25.08
2022-07-26T00:06:27.780Z,25.02
2022-07-26T00:06:39.728Z,25.08
2022-07-26T00:06:51.728Z,25.06
2022-07-26T00:07:03.738Z,25.14
2022-07-26T00:07:15.690Z,25.23
2022-07-26T00:07:27.644Z,25.28
2022-07-26T00:07:48.408Z,25.31
2022-07-26T00:08:10.636Z,25.35
2022-07-26T00:08:22.925Z,25.29
2022-07-26T00:08:34.951Z,25.15
2022-07-26T00:08:47.899Z,25.17
2022-07-26T00:08:59.888Z,25.21
2022-07-26T00:09:11.953Z,25.23
2022-07-26T00:09:24.059Z,25.26
2022-07-26T00:09:36.061Z,25.28
2022-07-26T00:09:48.629Z,25.31
2022-07-26T00:10:00.909Z,25.33
2022-07-26T00:10:13.706Z,25.35
2022-07-26T00:10:25.693Z,25.38
2022-07-26T00:10:48.685Z,25.40
2022-07-26T00:11:00.740Z,25.41
2022-07-26T00:11:19.406Z,25.27
2022-07-26T00:11:33.693Z,25.29
2022-07-26T00:11:45.744Z,25.32
2022-07-26T00:11:57.916Z,25.31
2022-07-26T00:12:10.656Z,25.23
2022-07-26T00:12:22.630Z,25.24
2022-07-26T00:12:34.629Z,25.27
2022-07-26T00:12:46.567Z,25.25
2022-07-26T00:12:58.483Z,25.28
2022-07-26T00:13:11.308Z,25.35
2022-07-26T00:13:23.321Z,25.35
2022-07-26T00:13:35.424Z,25.38
2022-07-26T00:13:47.695Z,25.42
2022-07-26T00:14:03.525Z,25.42
2022-07-26T00:14:15.878Z,25.45
2022-07-26T00:14:27.920Z,25.47
2022-07-26T00:14:39.907Z,25.49
2022-07-26T00:14:53.448Z,25.51
2022-07-26T00:15:08.704Z,25.52
2022-07-26T00:15:20.642Z,25.56
2022-07-26T00:15:32.750Z,25.56
2022-07-26T00:15:44.947Z,25.59
2022-07-26T00:15:57.366Z,25.56
2022-07-26T00:16:10.002Z,25.31
2022-07-26T00:16:22.106Z,25.37
2022-07-26T00:16:35.963Z,25.38
2022-07-26T00:16:48.106Z,25.42
2022-07-26T00:17:00.157Z,25.37
2022-07-26T00:17:12.128Z,25.42
2022-07-26T00:17:24.099Z,25.32
2022-07-26T00:17:36.092Z,25.34
2022-07-26T00:17:48.015Z,25.31
2022-07-26T00:17:59.985Z,25.29
2022-07-26T00:18:12.494Z,25.33
2022-07-26T00:18:24.975Z,25.37
2022-07-26T00:18:37.023Z,25.41
2022-07-26T00:18:48.940Z,25.44
2022-07-26T00:19:00.886Z,25.48
2022-07-26T00:19:12.854Z,25.51
2022-07-26T00:19:24.791Z,25.52
2022-07-26T00:19:36.757Z,25.52
2022-07-26T00:19:48.797Z,25.50
2022-07-26T00:20:00.761Z,25.50
2022-07-26T00:20:12.699Z,25.47
2022-07-26T00:20:27.670Z,25.49
2022-07-26T00:20:41.505Z,25.54
2022-07-26T00:20:53.821Z,25.57
2022-07-26T00:21:07.589Z,25.60
2022-07-26T00:21:20.497Z,25.64
2022-07-26T00:21:32.717Z,25.64
2022-07-26T00:21:44.757Z,25.64
2022-07-26T00:22:15.346Z,25.60
2022-07-26T00:22:36.188Z,25.64
2022-07-26T00:22:48.164Z,25.51
2022-07-26T00:23:01.071Z,25.55
2022-07-26T00:23:13.035Z,25.57
2022-07-26T00:23:25.018Z,25.61
2022-07-26T00:23:36.976Z,25.63
2022-07-26T00:23:49.190Z,25.66
2022-07-26T00:24:01.116Z,25.67
2022-07-26T00:24:13.138Z,25.70
2022-07-26T00:24:25.878Z,25.71
2022-07-26T00:24:39.438Z,25.73
2022-07-26T00:24:51.465Z,25.73
2022-07-26T00:25:06.114Z,25.76
2022-07-26T00:25:19.142Z,25.76
2022-07-26T00:25:31.128Z,25.75
2022-07-26T00:25:43.066Z,25.75
2022-07-26T00:25:55.029Z,25.71
2022-07-26T00:26:07.111Z,25.73
2022-07-26T00:26:19.207Z,25.74
2022-07-26T00:26:31.268Z,25.76
2022-07-26T00:26:43.254Z,25.77
2022-07-26T00:26:55.179Z,25.69
2022-07-26T00:27:07.146Z,25.73
2022-07-26T00:27:19.104Z,25.74
2022-07-26T00:27:31.195Z,25.74
2022-07-26T00:27:43.167Z,25.74
2022-07-26T00:27:55.745Z,25.75
2022-07-26T00:28:07.972Z,25.77
2022-07-26T00:28:21.659Z,25.80
2022-07-26T00:28:33.724Z,25.82
2022-07-26T00:28:46.064Z,25.82
2022-07-26T00:28:58.162Z,25.81
2022-07-26T00:29:10.446Z,25.83
2022-07-26T00:29:23.022Z,25.84
2022-07-26T00:29:35.104Z,25.83
2022-07-26T00:29:47.041Z,25.82
2022-07-26T00:29:59.519Z,25.83
2022-07-26T00:30:12.099Z,25.84
2022-07-26T00:30:24.971Z,25.83
2022-07-26T00:30:37.272Z,25.84
2022-07-26T00:30:49.213Z,25.84
2022-07-26T00:31:01.295Z,25.79
2022-07-26T00:31:13.934Z,25.78
2022-07-26T00:31:26.207Z,25.74
2022-07-26T00:31:38.235Z,25.72
2022-07-26T00:31:51.421Z,25.72
2022-07-26T00:32:03.660Z,25.68
2022-07-26T00:32:15.670Z,25.69
2022-07-26T00:32:27.631Z,25.66
2022-07-26T00:32:40.156Z,25.69
2022-07-26T00:32:55.201Z,25.72
2022-07-26T00:33:07.293Z,25.76
2022-07-26T00:33:20.577Z,25.77
2022-07-26T00:33:32.959Z,25.75
2022-07-26T00:33:45.163Z,25.68
2022-07-26T00:33:57.298Z,25.68
2022-07-26T00:34:09.242Z,25.70
2022-07-26T00:34:21.224Z,25.72
2022-07-26T00:34:33.227Z,25.75
2022-07-26T00:34:45.200Z,25.76
2022-07-26T00:34:57.142Z,25.76
2022-07-26T00:35:10.163Z,25.77
2022-07-26T00:35:22.708Z,25.77
2022-07-26T00:35:35.584Z,25.77
2022-07-26T00:35:47.714Z,25.79
2022-07-26T00:36:00.674Z,25.74
2022-07-26T00:36:12.909Z,25.65
2022-07-26T00:36:27.550Z,25.62
2022-07-26T00:36:41.873Z,25.55
2022-07-26T00:36:53.908Z,25.59
2022-07-26T00:37:05.860Z,25.59
2022-07-26T00:37:20.908Z,25.62
2022-07-26T00:37:33.212Z,25.54
2022-07-26T00:37:45.288Z,25.51
2022-07-26T00:37:59.002Z,25.46
2022-07-26T00:38:11.216Z,25.47
2022-07-26T00:38:24.708Z,25.42
2022-07-26T00:38:36.788Z,25.47
2022-07-26T00:38:48.743Z,25.51
2022-07-26T00:39:00.662Z,25.57
2022-07-26T00:39:12.632Z,25.58
2022-07-26T00:39:24.645Z,25.61
2022-07-26T00:39:36.628Z,25.57
2022-07-26T00:39:49.291Z,25.47
2022-07-26T00:40:01.392Z,25.48
2022-07-26T00:40:13.905Z,25.45
2022-07-26T00:40:26.071Z,25.39
2022-07-26T00:40:38.021Z,25.43
2022-07-26T00:40:50.330Z,25.47
2022-07-26T00:41:02.532Z,25.43
2022-07-26T00:41:14.507Z,25.43
2022-07-26T00:41:26.468Z,25.48
2022-07-26T00:41:38.429Z,25.49
2022-07-26T00:41:50.714Z,25.52
2022-07-26T00:42:02.716Z,25.49
2022-07-26T00:42:14.797Z,25.49
2022-07-26T00:42:27.030Z,25.49
2022-07-26T00:42:39.429Z,25.50
2022-07-26T00:42:51.761Z,25.46
2022-07-26T00:43:03.728Z,25.50
2022-07-26T00:43:15.807Z,25.51
2022-07-26T00:43:27.753Z,25.50
2022-07-26T00:43:57.477Z,25.38
2022-07-26T00:44:09.555Z,25.34
2022-07-26T00:44:21.533Z,25.39
2022-07-26T00:44:45.504Z,25.40
2022-07-26T00:44:57.595Z,25.40
2022-07-26T00:45:11.402Z,25.43
2022-07-26T00:45:25.533Z,25.47
2022-07-26T00:45:38.748Z,25.40
2022-07-26T00:45:51.182Z,25.39
2022-07-26T00:46:03.640Z,25.38
2022-07-26T00:46:15.790Z,25.29
2022-07-26T00:46:28.448Z,25.21
2022-07-26T00:46:46.386Z,25.26
2022-07-26T00:46:58.320Z,25.27
2022-07-26T00:47:10.524Z,25.30
2022-07-26T00:47:22.615Z,25.34
2022-07-26T00:47:35.726Z,25.37
2022-07-26T00:47:47.722Z,25.39
2022-07-26T00:47:59.730Z,25.40
2022-07-26T00:48:11.672Z,25.42
2022-07-26T00:48:23.809Z,25.44
2022-07-26T00:48:35.826Z,25.46
2022-07-26T00:48:47.887Z,25.45
2022-07-26T00:49:00.115Z,25.45
2022-07-26T00:49:12.983Z,25.46
2022-07-26T00:49:25.251Z,25.47
2022-07-26T00:49:37.358Z,25.48
2022-07-26T00:49:49.563Z,25.50
2022-07-26T00:50:01.839Z,25.50
2022-07-26T00:50:17.397Z,25.50
2022-07-26T00:50:29.403Z,25.51
2022-07-26T00:50:41.405Z,25.51
2022-07-26T00:50:54.586Z,25.51
2022-07-26T00:51:06.569Z,25.47
2022-07-26T00:51:19.070Z,25.45
2022-07-26T00:51:31.060Z,25.45
2022-07-26T00:51:45.692Z,25.44
2022-07-26T00:51:58.650Z,25.35
2022-07-26T00:52:11.414Z,25.34
2022-07-26T00:52:25.319Z,25.34
2022-07-26T00:52:37.548Z,25.35
2022-07-26T00:52:50.549Z,25.37
2022-07-26T00:53:02.817Z,25.36
2022-07-26T00:53:14.877Z,25.37
2022-07-26T00:53:26.872Z,25.36
2022-07-26T00:53:38.924Z,25.35
2022-07-26T00:53:50.921Z,25.33
2022-07-26T00:54:04.834Z,25.33
2022-07-26T00:54:17.035Z,25.34
2022-07-26T00:54:28.978Z,25.34
2022-07-26T00:54:46.576Z,25.36
2022-07-26T00:55:00.387Z,25.36
2022-07-26T00:55:15.513Z,25.36
2022-07-26T00:55:27.738Z,25.33
2022-07-26T00:55:41.680Z,25.35
2022-07-26T00:55:53.687Z,25.35
2022-07-26T00:56:05.694Z,25.34
2022-07-26T00:56:18.010Z,25.36
2022-07-26T00:56:31.770Z,25.34
2022-07-26T00:56:44.208Z,25.36
2022-07-26T00:56:56.214Z,25.33
2022-07-26T00:57:08.197Z,25.34
2022-07-26T00:57:22.565Z,25.35
2022-07-26T00:57:35.677Z,25.34
2022-07-26T00:57:47.758Z,25.28
2022-07-26T00:58:01.726Z,25.29
2022-07-26T00:58:13.778Z,25.32
2022-07-26T00:58:25.714Z,25.33
2022-07-26T00:58:37.650Z,25.33
2022-07-26T00:58:49.577Z,25.35
2022-07-26T00:59:01.706Z,25.36
2022-07-26T00:59:13.691Z,25.36
2022-07-26T00:59:25.765Z,25.37
2022-07-26T00:59:38.216Z,25.38
2022-07-26T00:59:50.332Z,25.35
2022-07-26T01:00:09.472Z,25.34
2022-07-26T01:00:23.765Z,25.30
2022-07-26T01:00:35.793Z,25.20
2022-07-26T01:00:47.787Z,25.25
2022-07-26T01:00:59.808Z,25.25
2022-07-26T01:01:12.354Z,25.26
2022-07-26T01:01:24.582Z,25.27
2022-07-26T01:01:36.640Z,25.28
2022-07-26T01:01:48.844Z,25.29
2022-07-26T01:02:04.079Z,25.27
2022-07-26T01:02:16.379Z,25.26
2022-07-26T01:02:28.472Z,25.25
2022-07-26T01:02:40.858Z,25.24
2022-07-26T01:02:53.108Z,25.24
2022-07-26T01:03:06.381Z,25.24
2022-07-26T01:03:18.373Z,25.22
2022-07-26T01:03:30.380Z,25.22
2022-07-26T01:03:53.160Z,25.24
2022-07-26T01:04:05.521Z,25.23
2022-07-26T01:04:17.795Z,25.24
2022-07-26T01:04:29.784Z,25.27
2022-07-26T01:04:44.408Z,25.24
2022-07-26T01:04:56.711Z,25.21
2022-07-26T01:05:08.998Z,25.22
2022-07-26T01:05:23.065Z,25.17
2022-07-26T01:05:36.481Z,25.17
2022-07-26T01:05:48.841Z,25.17
2022-07-26T01:06:00.875Z,25.19
2022-07-26T01:06:12.907Z,25.21
2022-07-26T01:06:27.503Z,25.21
2022-07-26T01:06:39.936Z,25.21
2022-07-26T01:06:52.191Z,25.22
2022-07-26T01:07:14.824Z,25.20
2022-07-26T01:07:28.890Z,25.16
2022-07-26T01:07:41.723Z,25.14
2022-07-26T01:07:53.915Z,25.12
2022-07-26T01:08:06.004Z,25.11
2022-07-26T01:08:18.241Z,25.10
2022-07-26T01:08:30.213Z,25.10
2022-07-26T01:08:42.206Z,25.07
2022-07-26T01:08:54.559Z,25.06
2022-07-26T01:09:06.615Z,25.07
2022-07-26T01:09:18.934Z,25.06
2022-07-26T01:09:31.072Z,25.05
2022-07-26T01:09:45.382Z,25.03
2022-07-26T01:09:57.376Z,25.00
2022-07-26T01:10:12.726Z,24.99
2022-07-26T01:10:24.994Z,24.96
2022-07-26T01:10:36.922Z,24.96
2022-07-26T01:10:48.872Z,24.92
2022-07-26T01:11:00.800Z,24.84
2022-07-26T01:11:13.000Z,24.85
2022-07-26T01:11:24.974Z,24.87
2022-07-26T01:11:36.988Z,24.88
2022-07-26T01:11:49.472Z,24.89
2022-07-26T01:12:01.439Z,24.90
2022-07-26T01:12:13.388Z,24.92
2022-07-26T01:12:25.339Z,24.94
2022-07-26T01:12:37.719Z,24.93
2022-07-26T01:12:49.835Z,24.92
2022-07-26T01:13:01.843Z,24.87
2022-07-26T01:13:19.569Z,24.83
2022-07-26T01:13:35.028Z,24.87
2022-07-26T01:13:49.251Z,24.87
2022-07-26T01:14:01.206Z,24.88
2022-07-26T01:14:13.233Z,24.90
2022-07-26T01:14:25.371Z,24.90
2022-07-26T01:14:37.432Z,24.90
2022-07-26T01:14:49.375Z,24.91
2022-07-26T01:15:01.488Z,24.92
2022-07-26T01:15:15.333Z,24.91
2022-07-26T01:15:27.495Z,24.90
2022-07-26T01:15:39.486Z,24.87
2022-07-26T01:15:51.506Z,24.85
2022-07-26T01:16:03.889Z,24.85
2022-07-26T01:16:16.622Z,24.86
2022-07-26T01:16:28.742Z,24.81
2022-07-26T01:16:40.971Z,24.78
2022-07-26T01:16:53.701Z,24.79
2022-07-26T01:17:07.774Z,24.77
2022-07-26T01:17:19.715Z,24.79
2022-07-26T01:17:32.637Z,24.81
2022-07-26T01:17:48.258Z,24.83
2022-07-26T01:18:00.214Z,24.85
2022-07-26T01:18:12.167Z,24.85
2022-07-26T01:18:24.111Z,24.86
2022-07-26T01:18:36.039Z,24.86
2022-07-26T01:18:48.099Z,24.88
2022-07-26T01:19:00.108Z,24.88
2022-07-26T01:19:12.096Z,24.86
2022-07-26T01:19:24.448Z,24.85
2022-07-26T01:19:36.388Z,24.85
2022-07-26T01:19:48.436Z,24.86
2022-07-26T01:20:00.656Z,24.86
2022-07-26T01:20:13.757Z,24.87
2022-07-26T01:20:25.854Z,24.88
2022-07-26T01:20:38.305Z,24.84
2022-07-26T01:20:50.645Z,24.84
2022-07-26T01:21:13.110Z,24.87
2022-07-26T01:21:33.748Z,24.91
2022-07-26T01:21:45.845Z,24.85
2022-07-26T01:21:57.877Z,24.88
2022-07-26T01:22:14.196Z,24.88
2022-07-26T01:22:26.758Z,24.89
2022-07-26T01:22:39.194Z,24.88
2022-07-26T01:22:51.142Z,24.90
2022-07-26T01:23:03.152Z,24.89
2022-07-26T01:23:15.208Z,24.78
2022-07-26T01:23:27.313Z,24.74
2022-07-26T01:23:39.388Z,24.76
2022-07-26T01:23:53.322Z,24.79
2022-07-26T01:24:06.516Z,24.82
2022-07-26T01:24:20.284Z,24.84
2022-07-26T01:24:32.564Z,24.83
2022-07-26T01:24:44.506Z,24.84
2022-07-26T01:24:56.695Z,24.84
2022-07-26T01:25:09.908Z,24.85
2022-07-26T01:25:42.409Z,24.76
2022-07-26T01:25:55.755Z,24.69
2022-07-26T01:26:08.671Z,24.70
2022-07-26T01:26:21.126Z,24.72
2022-07-26T01:26:37.826Z,24.72
2022-07-26T01:26:49.772Z,24.74
2022-07-26T01:27:01.855Z,24.74
2022-07-26T01:27:15.494Z,24.76
2022-07-26T01:27:33.530Z,24.77
2022-07-26T01:27:45.976Z,24.79
2022-07-26T01:27:58.035Z,24.79
2022-07-26T01:28:10.006Z,24.79
2022-07-26T01:28:21.946Z,24.73
2022-07-26T01:28:37.835Z,24.64
2022-07-26T01:28:50.311Z,24.63
2022-07-26T01:29:02.410Z,24.64
2022-07-26T01:29:14.396Z,24.61
2022-07-26T01:29:34.730Z,24.61
2022-07-26T01:29:49.151Z,24.64
2022-07-26T01:30:01.153Z,24.64
2022-07-26T01:30:13.712Z,24.61
2022-07-26T01:30:25.691Z,24.63
2022-07-26T01:30:37.791Z,24.63
2022-07-26T01:30:50.201Z,24.65
2022-07-26T01:31:02.262Z,24.67
2022-07-26T01:31:14.346Z,24.68
2022-07-26T01:31:26.664Z,24.68
2022-07-26T01:31:39.065Z,24.70
2022-07-26T01:31:51.547Z,24.71
2022-07-26T01:32:04.943Z,24.73
2022-07-26T01:32:17.073Z,24.75
2022-07-26T01:32:29.024Z,24.65
2022-07-26T01:32:40.995Z,24.57
2022-07-26T01:32:53.201Z,24.60
2022-07-26T01:33:06.543Z,24.50
2022-07-26T01:33:19.058Z,24.49
2022-07-26T01:33:32.450Z,24.55
2022-07-26T01:33:44.606Z,24.57
2022-07-26T01:33:56.631Z,24.63
2022-07-26T01:34:08.946Z,24.65
2022-07-26T01:34:21.186Z,24.68
2022-07-26T01:34:33.151Z,24.69
2022-07-26T01:34:45.349Z,24.68
2022-07-26T01:34:57.313Z,24.71
2022-07-26T01:35:09.749Z,24.72
2022-07-26T01:35:22.205Z,24.69
2022-07-26T01:35:34.157Z,24.69
2022-07-26T01:35:46.219Z,24.63
2022-07-26T01:36:00.420Z,24.55
2022-07-26T01:36:12.711Z,24.50
2022-07-26T01:36:24.704Z,24.54
2022-07-26T01:36:36.645Z,24.49
2022-07-26T01:36:52.072Z,24.46
2022-07-26T01:37:04.103Z,24.49
2022-07-26T01:37:16.076Z,24.45
2022-07-26T01:37:28.188Z,24.41
2022-07-26T01:37:40.118Z,24.44
2022-07-26T01:37:52.111Z,24.46
2022-07-26T01:38:04.051Z,24.51
2022-07-26T01:38:15.983Z,24.53
2022-07-26T01:38:27.920Z,24.54
2022-07-26T01:38:41.403Z,24.59
2022-07-26T01:38:53.324Z,24.62
2022-07-26T01:39:06.747Z,24.60
2022-07-26T01:39:18.744Z,24.62
2022-07-26T01:39:30.728Z,24.63
2022-07-26T01:39:44.185Z,24.62
2022-07-26T01:39:56.136Z,24.60
2022-07-26T01:40:09.203Z,24.58
2022-07-26T01:40:22.860Z,24.59
2022-07-26T01:40:34.929Z,24.57
2022-07-26T01:40:46.892Z,24.60
2022-07-26T01:40:58.836Z,24.49
2022-07-26T01:41:11.186Z,24.56
2022-07-26T01:41:38.361Z,24.49
2022-07-26T01:41:50.601Z,24.59
2022-07-26T01:42:03.074Z,24.62
2022-07-26T01:42:16.461Z,24.67
2022-07-26T01:42:28.444Z,24.67
2022-07-26T01:42:41.502Z,24.69
2022-07-26T01:42:53.453Z,24.69
2022-07-26T01:43:05.405Z,24.71
2022-07-26T01:43:18.911Z,24.58
2022-07-26T01:43:30.856Z,24.63
2022-07-26T01:43:43.614Z,24.61
2022-07-26T01:43:55.620Z,24.65
2022-07-26T01:44:08.578Z,24.64
2022-07-26T01:44:20.700Z,24.59
2022-07-26T01:44:32.674Z,24.58
2022-07-26T01:44:44.653Z,24.62
2022-07-26T01:44:56.802Z,24.64
2022-07-26T01:45:12.603Z,24.68
2022-07-26T01:45:24.559Z,24.68
2022-07-26T01:45:36.567Z,24.69
2022-07-26T01:45:48.694Z,24.68
2022-07-26T01:46:00.761Z,24.60
2022-07-26T01:46:13.652Z,24.59
2022-07-26T01:46:25.948Z,24.61
2022-07-26T01:46:38.292Z,24.59
2022-07-26T01:46:50.377Z,24.59
2022-07-26T01:47:02.294Z,24.60
2022-07-26T01:47:14.232Z,24.62
2022-07-26T01:47:26.227Z,24.63
2022-07-26T01:47:39.107Z,24.63
2022-07-26T01:47:51.043Z,24.54
2022-07-26T01:48:03.158Z,24.55
2022-07-26T01:48:15.201Z,24.59
2022-07-26T01:48:27.257Z,24.59
2022-07-26T01:48:39.472Z,24.61
2022-07-26T01:48:52.044Z,24.62
2022-07-26T01:49:04.595Z,24.58
2022-07-26T01:49:16.774Z,24.60
2022-07-26T01:49:28.782Z,24.60
2022-07-26T01:49:40.734Z,24.60
2022-07-26T01:49:52.725Z,24.60
2022-07-26T01:50:06.691Z,24.59
2022-07-26T01:50:18.993Z,24.58
2022-07-26T01:50:30.986Z,24.58
2022-07-26T01:50:43.007Z,24.59
2022-07-26T01:50:54.980Z,24.58
2022-07-26T01:51:06.927Z,24.57
2022-07-26T01:51:19.001Z,24.58
2022-07-26T01:51:31.035Z,24.58
2022-07-26T01:51:43.313Z,24.56
2022-07-26T01:51:55.388Z,24.55
2022-07-26T01:52:07.339Z,24.57
2022-07-26T01:52:19.294Z,24.55
2022-07-26T01:52:31.242Z,24.49
2022-07-26T01:52:43.567Z,24.51
2022-07-26T01:52:55.502Z,24.53
2022-07-26T01:53:07.453Z,24.49
2022-07-26T01:53:22.399Z,24.49
2022-07-26T01:53:34.482Z,24.41
2022-07-26T01:53:47.342Z,24.45
2022-07-26T01:54:00.776Z,24.44
2022-07-26T01:54:12.927Z,24.47
2022-07-26T01:54:25.528Z,24.47
2022-07-26T01:54:37.525Z,24.47
2022-07-26T01:54:49.601Z,24.46
2022-07-26T01:55:01.881Z,24.46
2022-07-26T01:55:13.848Z,24.46
2022-07-26T01:55:25.889Z,24.47
2022-07-26T01:55:37.911Z,24.49
2022-07-26T01:55:49.896Z,24.50
2022-07-26T01:56:01.947Z,24.54
2022-07-26T01:56:14.548Z,24.54
2022-07-26T01:56:26.526Z,24.55
2022-07-26T01:56:38.556Z,24.55
2022-07-26T01:56:50.484Z,24.56
2022-07-26T01:57:02.482Z,24.55
2022-07-26T01:57:17.404Z,24.58
2022-07-26T01:57:29.340Z,24.57
2022-07-26T01:57:42.488Z,24.57
2022-07-26T01:57:54.891Z,24.58
2022-07-26T01:58:07.352Z,24.58
2022-07-26T01:58:19.537Z,24.58
2022-07-26T01:58:31.471Z,24.53
2022-07-26T01:58:43.446Z,24.52
2022-07-26T01:58:55.482Z,24.52
2022-07-26T01:59:07.565Z,24.52
2022-07-26T01:59:19.538Z,24.53
2022-07-26T01:59:31.492Z,24.53
2022-07-26T01:59:43.476Z,24.52
2022-07-26T01:59:55.607Z,24.52
2022-07-26T02:00:08.289Z,24.51
2022-07-26T02:00:20.359Z,24.53
2022-07-26T02:00:34.325Z,24.53
2022-07-26T02:00:46.381Z,24.57
2022-07-26T02:00:58.376Z,24.55
2022-07-26T02:01:10.365Z,24.50
2022-07-26T02:01:38.387Z,24.49
2022-07-26T02:01:51.975Z,24.49
2022-07-26T02:02:04.275Z,24.41
2022-07-26T02:02:16.488Z,24.41
2022-07-26T02:02:29.629Z,24.39
2022-07-26T02:02:41.821Z,24.39
2022-07-26T02:02:54.370Z,24.40
2022-07-26T02:03:06.468Z,24.32
2022-07-26T02:03:18.553Z,24.26
2022-07-26T02:03:30.620Z,24.25
2022-07-26T02:03:42.593Z,24.21
2022-07-26T02:03:54.630Z,24.26
2022-07-26T02:04:08.615Z,24.30
2022-07-26T02:04:39.277Z,24.32
2022-07-26T02:05:00.275Z,24.38
2022-07-26T02:05:12.762Z,24.38
2022-07-26T02:05:25.055Z,24.25
2022-07-26T02:05:37.035Z,24.27
2022-07-26T02:05:48.971Z,24.28
2022-07-26T02:06:01.928Z,24.33
2022-07-26T02:06:14.880Z,24.36
2022-07-26T02:06:26.880Z,24.37
2022-07-26T02:06:39.881Z,24.41
2022-07-26T02:06:51.836Z,24.39
2022-07-26T02:07:05.416Z,24.27
2022-07-26T02:07:18.548Z,24.25
2022-07-26T02:07:37.120Z,24.26
2022-07-26T02:07:50.801Z,24.31
2022-07-26T02:08:02.920Z,24.26
2022-07-26T02:08:14.921Z,24.30
2022-07-26T02:08:27.329Z,24.27
2022-07-26T02:08:39.289Z,24.27
2022-07-26T02:08:51.217Z,24.30
2022-07-26T02:09:03.244Z,24.34
2022-07-26T02:09:17.851Z,24.39
2022-07-26T02:09:38.051Z,24.37
2022-07-26T02:09:51.988Z,24.38
2022-07-26T02:10:05.722Z,24.39
2022-07-26T02:10:19.204Z,24.39
2022-07-26T02:10:50.352Z,24.38
2022-07-26T02:11:03.583Z,24.35
2022-07-26T02:11:15.832Z,24.30
2022-07-26T02:11:27.789Z,24.30
2022-07-26T02:11:39.787Z,24.20
2022-07-26T02:11:51.739Z,24.22
2022-07-26T02:12:03.827Z,24.25
2022-07-26T02:12:15.934Z,24.28
2022-07-26T02:12:27.907Z,24.26
2022-07-26T02:12:40.409Z,24.30
2022-07-26T02:12:52.366Z,24.31
2022-07-26T02:13:04.315Z,24.34
2022-07-26T02:13:19.739Z,24.29
2022-07-26T02:13:35.560Z,24.25
2022-07-26T02:13:52.666Z,24.17
2022-07-26T02:14:05.370Z,24.15
2022-07-26T02:14:26.083Z,24.09
2022-07-26T02:14:40.094Z,24.16
2022-07-26T02:14:52.079Z,24.18
2022-07-26T02:15:05.880Z,24.17
2022-07-26T02:15:17.828Z,24.21
2022-07-26T02:15:29.932Z,24.25
2022-07-26T02:15:42.256Z,24.21
2022-07-26T02:15:54.316Z,24.13
2022-07-26T02:16:10.201Z,24.06
2022-07-26T02:16:22.543Z,24.13
2022-07-26T02:16:34.565Z,24.15
2022-07-26T02:16:46.531Z,24.19
2022-07-26T02:17:00.073Z,24.19
2022-07-26T02:17:12.313Z,24.15
2022-07-26T02:17:24.283Z,24.16
2022-07-26T02:17:36.368Z,24.18
2022-07-26T02:17:48.311Z,24.18
2022-07-26T02:18:01.606Z,24.22
2022-07-26T02:18:13.643Z,24.21
2022-07-26T02:18:28.455Z,24.22
2022-07-26T02:18:42.945Z,24.16
2022-07-26T02:18:54.868Z,24.09
2022-07-26T02:19:06.890Z,24.06
2022-07-26T02:19:18.818Z,24.09
2022-07-26T02:19:31.517Z,24.08
2022-07-26T02:19:43.722Z,24.08
2022-07-26T02:19:55.694Z,24.10
2022-07-26T02:20:08.625Z,24.12
2022-07-26T02:20:20.688Z,24.13
2022-07-26T02:20:33.314Z,24.15
2022-07-26T02:20:45.492Z,24.19
2022-07-26T02:20:58.533Z,24.21
2022-07-26T02:21:10.514Z,24.20
2022-07-26T02:21:22.450Z,24.22
2022-07-26T02:21:34.433Z,24.24
2022-07-26T02:21:46.444Z,24.25
2022-07-26T02:21:58.809Z,24.26
2022-07-26T02:22:10.791Z,24.16
2022-07-26T02:22:23.038Z,24.10
2022-07-26T02:22:35.452Z,24.12
2022-07-26T02:22:47.476Z,24.02
2022-07-26T02:23:03.743Z,23.91
2022-07-26T02:23:17.207Z,23.96
2022-07-26T02:23:29.300Z,24.02
2022-07-26T02:23:41.987Z,24.04
2022-07-26T02:23:54.142Z,24.07
2022-07-26T02:24:07.576Z,24.07
2022-07-26T02:24:21.685Z,23.98
2022-07-26T02:24:33.617Z,24.04
2022-07-26T02:24:47.061Z,24.07
2022-07-26T02:25:04.424Z,24.08
2022-07-26T02:25:17.657Z,24.06
2022-07-26T02:25:30.011Z,24.07
2022-07-26T02:25:43.652Z,24.07
2022-07-26T02:25:56.130Z,24.10
2022-07-26T02:26:08.111Z,24.11
2022-07-26T02:26:20.055Z,24.11
2022-07-26T02:26:31.983Z,24.12
2022-07-26T02:26:43.907Z,24.12
2022-07-26T02:26:57.019Z,24.09
2022-07-26T02:27:09.877Z,24.07
2022-07-26T02:27:22.056Z,24.07
2022-07-26T02:27:33.973Z,24.06
2022-07-26T02:27:45.946Z,24.08
2022-07-26T02:27:57.976Z,24.08
2022-07-26T02:28:10.010Z,24.05
2022-07-26T02:28:22.497Z,24.02
2022-07-26T02:28:34.422Z,24.04
2022-07-26T02:28:46.371Z,24.05
2022-07-26T02:28:58.309Z,24.06
2022-07-26T02:29:10.303Z,24.02
2022-07-26T02:29:22.321Z,24.04
2022-07-26T02:29:34.304Z,24.03
2022-07-26T02:29:46.327Z,24.05
2022-07-26T02:29:58.270Z,24.01
2022-07-26T02:30:11.056Z,23.88
2022-07-26T02:30:23.156Z,23.92
2022-07-26T02:30:35.215Z,23.93
2022-07-26T02:30:48.366Z,23.97
2022-07-26T02:31:00.413Z,23.96
2022-07-26T02:31:15.329Z,23.95
2022-07-26T02:31:27.773Z,23.91
2022-07-26T02:31:48.544Z,23.84
2022-07-26T02:32:01.285Z,23.76
2022-07-26T02:32:13.565Z,23.82
2022-07-26T02:32:25.581Z,23.73
2022-07-26T02:32:37.529Z,23.74
2022-07-26T02:32:50.320Z,23.81
2022-07-26T02:33:02.281Z,23.82
2022-07-26T02:33:15.495Z,23.81
2022-07-26T02:33:27.481Z,23.85
2022-07-26T02:33:39.626Z,23.88
2022-07-26T02:33:51.586Z,23.86
2022-07-26T02:34:03.793Z,23.83
2022-07-26T02:34:16.072Z,23.85
2022-07-26T02:34:32.197Z,23.81
2022-07-26T02:34:45.835Z,23.87
2022-07-26T02:34:57.771Z,23.92
2022-07-26T02:35:10.339Z,23.94
2022-07-26T02:35:22.333Z,23.93
2022-07-26T02:35:34.443Z,23.92
2022-07-26T02:35:47.254Z,23.92
2022-07-26T02:35:59.210Z,23.91
2022-07-26T02:36:11.143Z,23.94
2022-07-26T02:36:23.074Z,23.93
2022-07-26T02:36:36.485Z,23.93
2022-07-26T02:36:49.911Z,23.82
2022-07-26T02:37:03.680Z,23.81
2022-07-26T02:37:15.608Z,23.75
2022-07-26T02:37:27.534Z,23.82
2022-07-26T02:37:42.480Z,23.83
2022-07-26T02:37:55.903Z,23.79
2022-07-26T02:38:09.856Z,23.82
2022-07-26T02:38:22.570Z,23.82
2022-07-26T02:38:37.309Z,23.86
2022-07-26T02:38:49.253Z,23.87
2022-07-26T02:39:01.253Z,23.83
2022-07-26T02:39:13.461Z,23.78
2022-07-26T02:39:28.663Z,23.77
2022-07-26T02:39:40.773Z,23.69
2022-07-26T02:39:52.784Z,23.72
2022-07-26T02:40:05.343Z,23.70
2022-07-26T02:40:19.462Z,23.67
2022-07-26T02:40:32.459Z,23.62
2022-07-26T02:40:44.709Z,23.68
2022-07-26T02:40:56.642Z,23.68
2022-07-26T02:41:08.576Z,23.65
2022-07-26T02:41:20.561Z,23.66
2022-07-26T02:41:32.512Z,23.65
2022-07-26T02:41:44.651Z,23.71
2022-07-26T02:42:02.917Z,23.73
2022-07-26T02:42:14.894Z,23.75
2022-07-26T02:42:26.852Z,23.74
2022-07-26T02:42:38.833Z,23.63
2022-07-26T02:42:50.752Z,23.66
2022-07-26T02:43:04.251Z,23.70
2022-07-26T02:43:16.232Z,23.64
2022-07-26T02:43:30.487Z,23.67
2022-07-26T02:43:42.433Z,23.70
2022-07-26T02:43:54.454Z,23.67
2022-07-26T02:44:08.167Z,23.60
2022-07-26T02:44:20.598Z,23.61
2022-07-26T02:44:33.967Z,23.61
2022-07-26T02:44:45.911Z,23.67
2022-07-26T02:44:57.855Z,23.67
2022-07-26T02:45:10.828Z,23.66
2022-07-26T02:45:22.870Z,23.68
2022-07-26T02:45:35.596Z,23.71
2022-07-26T02:46:03.713Z,23.63
2022-07-26T02:46:15.730Z,23.66
2022-07-26T02:46:27.735Z,23.64